Carolyn H — WDI5873 — position and weather

sailwx.info

Track history (hours):
 
Tides and Currents Weather Stations Pressure Air Temp Water Temp Dewpoint Dewpoint Depression Visibility Wind Speed Wind Dir Waves Ship Positions

Carolyn H

Owner: Boyer Towing, Inc., Ketchikan, AK. More information available from US FCC via Universal Licensing System and Coast Guard Vessel Documentation Center.

Last reported at 2017-Dec-08 19:55 UTC. Time now 2017-Dec-14 08:23 UTC.
Position N 47°32' W 122°20'.

Length 21 m; draft 2.2 m.

Type: Towing. MMSI: 367712860.

Date/timePositionNaut miles runAvg speedWind from/ knotsBaromVisibWave heightAir tempDewpointWater temp
2017-Dec-08 19:55N 47°32' W 122°20'0 0.0
2017-Dec-08 19:30N 47°32' W 122°20'0 0.0
2017-Dec-08 19:00N 47°32' W 122°20'0 0.0
2017-Dec-08 18:30N 47°32' W 122°20'0 0.0
2017-Dec-08 18:00N 47°32' W 122°20'0 0.0
2017-Dec-08 17:30N 47°32' W 122°20'0 0.0
2017-Dec-08 17:00N 47°32' W 122°20'0 0.0
2017-Dec-08 16:30N 47°32' W 122°20'0 0.1
2017-Dec-08 16:00N 47°32' W 122°20'0 0.0
2017-Dec-08 07:10N 47°32' W 122°20'0 0.3
2017-Dec-08 07:00N 47°32' W 122°20'0 0.7
2017-Dec-08 06:30N 47°33' W 122°20'1 2.0
2017-Dec-08 06:00N 47°33' W 122°21'1 2.4
2017-Dec-08 05:30N 47°35' W 122°22'1 2.2
2017-Dec-08 05:00N 47°36' W 122°22'2 3.2
2017-Dec-08 04:30N 47°37' W 122°24'2 3.1
2017-Dec-08 04:00N 47°38' W 122°25'1 2.9
2017-Dec-08 03:30N 47°39' W 122°26'2 3.9
2017-Dec-08 03:00N 47°41' W 122°26'2 4.3
2017-Dec-08 02:30N 47°43' W 122°27'2 4.1
2017-Dec-08 02:00N 47°45' W 122°28'2 3.8
2017-Dec-08 01:30N 47°47' W 122°28'2 3.1
2017-Dec-08 01:00N 47°49' W 122°29'2 3.1
2017-Dec-08 00:30N 47°50' W 122°29'2 3.2
2017-Dec-08 00:00N 47°52' W 122°30'1 2.9
2017-Dec-07 23:30N 47°53' W 122°31'1 2.1
2017-Dec-07 23:01N 47°54' W 122°31'1 1.0
2017-Dec-07 22:30N 47°54' W 122°31'2 3.1
2017-Dec-07 22:00N 47°55' W 122°33'2 2.9
2017-Dec-07 21:25N 47°56' W 122°35'1 2.4
2017-Dec-07 20:59N 47°57' W 122°37'2 2.7
2017-Dec-07 20:10N 47°54' W 122°37'1 3.0
2017-Dec-07 19:54N 47°54' W 122°37'2 3.3
2017-Dec-07 19:26N 47°52' W 122°36'1 3.1
2017-Dec-07 19:00N 47°51' W 122°37'2 3.4
2017-Dec-07 18:30N 47°50' W 122°39'2 3.4
2017-Dec-07 18:00N 47°48' W 122°41'2 3.2
2017-Dec-07 17:29N 47°47' W 122°43'2 3.0
2017-Dec-07 16:57N 47°46' W 122°44'1 2.9
2017-Dec-07 16:30N 47°45' W 122°45'1 1.2
2017-Dec-07 16:00N 47°44' W 122°44'0 0.8
2017-Dec-07 15:30N 47°44' W 122°45'0 0.0
2017-Dec-07 15:00N 47°44' W 122°45'3 5.2
2017-Dec-07 14:29N 47°41' W 122°46'4 7.5
2017-Dec-07 14:00N 47°39' W 122°50'0 0.2
2017-Dec-07 13:30N 47°39' W 122°50'0 0.0
2017-Dec-07 13:00N 47°39' W 122°50'0 0.0
2017-Dec-07 12:30N 47°39' W 122°50'0 0.0
2017-Dec-07 12:00N 47°39' W 122°50'0 0.0
2017-Dec-07 11:30N 47°39' W 122°50'0 0.0
2017-Dec-07 11:00N 47°39' W 122°50'0 0.0
2017-Dec-07 10:30N 47°39' W 122°50'0 0.0
2017-Dec-07 10:00N 47°39' W 122°50'0 0.0
2017-Dec-07 09:30N 47°39' W 122°50'0 0.0
2017-Dec-07 09:00N 47°39' W 122°50'0 0.0
2017-Dec-07 08:30N 47°39' W 122°50'0 0.0
2017-Dec-07 08:00N 47°39' W 122°50'0 0.0
2017-Dec-07 07:30N 47°39' W 122°50'0 0.0
2017-Dec-07 07:00N 47°39' W 122°50'0 0.0
2017-Dec-07 06:30N 47°39' W 122°50'0 0.0
2017-Dec-07 06:00N 47°39' W 122°50'0 0.0
2017-Dec-07 05:30N 47°39' W 122°50'0 0.0
2017-Dec-07 05:00N 47°39' W 122°50'0 0.0
2017-Dec-07 04:30N 47°39' W 122°50'0 0.0
2017-Dec-07 04:00N 47°39' W 122°50'0 0.0
2017-Dec-07 03:30N 47°39' W 122°50'0 0.0
2017-Dec-07 03:00N 47°39' W 122°50'0 0.0
2017-Dec-07 02:30N 47°39' W 122°50'0 0.0
2017-Dec-07 02:00N 47°39' W 122°50'0 0.0
2017-Dec-07 01:30N 47°39' W 122°50'0 0.0
2017-Dec-07 01:00N 47°39' W 122°50'0 0.0
2017-Dec-07 00:30N 47°39' W 122°50'3 6.2
2017-Dec-07 00:00N 47°41' W 122°47'6 9.2
2017-Dec-06 23:20N 47°47' W 122°43'4 9.5
2017-Dec-06 22:52N 47°50' W 122°39'4 8.8
2017-Dec-06 22:25N 47°54' W 122°36'  
2017-Dec-01 18:33N 47°32' W 122°20'0 1.0
2017-Dec-01 18:31N 47°32' W 122°20'2 4.6
2017-Dec-01 18:01N 47°34' W 122°21'3 6.6
2017-Dec-01 17:31N 47°36' W 122°26'4 8.6
2017-Dec-01 17:00N 47°34' W 122°32'3 6.7
2017-Dec-01 16:30N 47°33' W 122°37'1 1.2
2017-Dec-01 16:00N 47°33' W 122°38'0 0.0
2017-Dec-01 15:30N 47°33' W 122°38'0 0.7
2017-Dec-01 14:58N 47°33' W 122°37'3 5.8
2017-Dec-01 14:30N 47°35' W 122°34'2 4.3
2017-Dec-01 14:00N 47°34' W 122°31'3 5.5
2017-Dec-01 13:31N 47°35' W 122°27'3 6.1
2017-Dec-01 13:01N 47°36' W 122°23'3 6.8
2017-Dec-01 12:30N 47°33' W 122°20'1 1.9
2017-Dec-01 12:01N 47°32' W 122°20'  
2017-Nov-28 23:15N 47°32' W 122°20'0 0.3
2017-Nov-28 23:01N 47°32' W 122°20'0 0.1
2017-Nov-28 22:31N 47°32' W 122°20'0 0.1
2017-Nov-28 22:01N 47°32' W 122°20'0 0.4
2017-Nov-28 21:31N 47°32' W 122°19'0 0.1
2017-Nov-28 21:01N 47°32' W 122°19'0 0.5
2017-Nov-28 20:31N 47°32' W 122°20'0 0.0
2017-Nov-28 20:00N 47°32' W 122°20'  
Track history (hours):
 
Tides and Currents Weather Stations Pressure Air Temp Water Temp Dewpoint Dewpoint Depression Visibility Wind Speed Wind Dir Waves Ship Positions

Carolyn H

Owner: Boyer Towing, Inc., Ketchikan, AK. More information available from US FCC via Universal Licensing System and Coast Guard Vessel Documentation Center.

Last reported at 2017-Dec-08 19:55 UTC. Time now 2017-Dec-14 08:23 UTC.
Position N 47°32' W 122°20'.

Length 21 m; draft 2.2 m.

Type: Towing. MMSI: 367712860.

Date/timePositionNaut miles runAvg speedWind from/ knotsBaromVisibWave heightAir tempDewpointWater temp
2017-Dec-08 19:55N 47°32' W 122°20'0 0.0
2017-Dec-08 19:30N 47°32' W 122°20'0 0.0
2017-Dec-08 19:00N 47°32' W 122°20'0 0.0
2017-Dec-08 18:30N 47°32' W 122°20'0 0.0
2017-Dec-08 18:00N 47°32' W 122°20'0 0.0
2017-Dec-08 17:30N 47°32' W 122°20'0 0.0
2017-Dec-08 17:00N 47°32' W 122°20'0 0.0
2017-Dec-08 16:30N 47°32' W 122°20'0 0.1
2017-Dec-08 16:00N 47°32' W 122°20'0 0.0
2017-Dec-08 07:10N 47°32' W 122°20'0 0.3
2017-Dec-08 07:00N 47°32' W 122°20'0 0.7
2017-Dec-08 06:30N 47°33' W 122°20'1 2.0
2017-Dec-08 06:00N 47°33' W 122°21'1 2.4
2017-Dec-08 05:30N 47°35' W 122°22'1 2.2
2017-Dec-08 05:00N 47°36' W 122°22'2 3.2
2017-Dec-08 04:30N 47°37' W 122°24'2 3.1
2017-Dec-08 04:00N 47°38' W 122°25'1 2.9
2017-Dec-08 03:30N 47°39' W 122°26'2 3.9
2017-Dec-08 03:00N 47°41' W 122°26'2 4.3
2017-Dec-08 02:30N 47°43' W 122°27'2 4.1
2017-Dec-08 02:00N 47°45' W 122°28'2 3.8
2017-Dec-08 01:30N 47°47' W 122°28'2 3.1
2017-Dec-08 01:00N 47°49' W 122°29'2 3.1
2017-Dec-08 00:30N 47°50' W 122°29'2 3.2
2017-Dec-08 00:00N 47°52' W 122°30'1 2.9
2017-Dec-07 23:30N 47°53' W 122°31'1 2.1
2017-Dec-07 23:01N 47°54' W 122°31'1 1.0
2017-Dec-07 22:30N 47°54' W 122°31'2 3.1
2017-Dec-07 22:00N 47°55' W 122°33'2 2.9
2017-Dec-07 21:25N 47°56' W 122°35'1 2.4
2017-Dec-07 20:59N 47°57' W 122°37'2 2.7
2017-Dec-07 20:10N 47°54' W 122°37'1 3.0
2017-Dec-07 19:54N 47°54' W 122°37'2 3.3
2017-Dec-07 19:26N 47°52' W 122°36'1 3.1
2017-Dec-07 19:00N 47°51' W 122°37'2 3.4
2017-Dec-07 18:30N 47°50' W 122°39'2 3.4
2017-Dec-07 18:00N 47°48' W 122°41'2 3.2
2017-Dec-07 17:29N 47°47' W 122°43'2 3.0
2017-Dec-07 16:57N 47°46' W 122°44'1 2.9
2017-Dec-07 16:30N 47°45' W 122°45'1 1.2
2017-Dec-07 16:00N 47°44' W 122°44'0 0.8
2017-Dec-07 15:30N 47°44' W 122°45'0 0.0
2017-Dec-07 15:00N 47°44' W 122°45'3 5.2
2017-Dec-07 14:29N 47°41' W 122°46'4 7.5
2017-Dec-07 14:00N 47°39' W 122°50'0 0.2
2017-Dec-07 13:30N 47°39' W 122°50'0 0.0
2017-Dec-07 13:00N 47°39' W 122°50'0 0.0
2017-Dec-07 12:30N 47°39' W 122°50'0 0.0
2017-Dec-07 12:00N 47°39' W 122°50'0 0.0
2017-Dec-07 11:30N 47°39' W 122°50'0 0.0
2017-Dec-07 11:00N 47°39' W 122°50'0 0.0
2017-Dec-07 10:30N 47°39' W 122°50'0 0.0
2017-Dec-07 10:00N 47°39' W 122°50'0 0.0
2017-Dec-07 09:30N 47°39' W 122°50'0 0.0
2017-Dec-07 09:00N 47°39' W 122°50'0 0.0
2017-Dec-07 08:30N 47°39' W 122°50'0 0.0
2017-Dec-07 08:00N 47°39' W 122°50'0 0.0
2017-Dec-07 07:30N 47°39' W 122°50'0 0.0
2017-Dec-07 07:00N 47°39' W 122°50'0 0.0
2017-Dec-07 06:30N 47°39' W 122°50'0 0.0
2017-Dec-07 06:00N 47°39' W 122°50'0 0.0
2017-Dec-07 05:30N 47°39' W 122°50'0 0.0
2017-Dec-07 05:00N 47°39' W 122°50'0 0.0
2017-Dec-07 04:30N 47°39' W 122°50'0 0.0
2017-Dec-07 04:00N 47°39' W 122°50'0 0.0
2017-Dec-07 03:30N 47°39' W 122°50'0 0.0
2017-Dec-07 03:00N 47°39' W 122°50'0 0.0
2017-Dec-07 02:30N 47°39' W 122°50'0 0.0
2017-Dec-07 02:00N 47°39' W 122°50'0 0.0
2017-Dec-07 01:30N 47°39' W 122°50'0 0.0
2017-Dec-07 01:00N 47°39' W 122°50'0 0.0
2017-Dec-07 00:30N 47°39' W 122°50'3 6.2
2017-Dec-07 00:00N 47°41' W 122°47'6 9.2
2017-Dec-06 23:20N 47°47' W 122°43'4 9.5
2017-Dec-06 22:52N 47°50' W 122°39'4 8.8
2017-Dec-06 22:25N 47°54' W 122°36'  
2017-Dec-01 18:33N 47°32' W 122°20'0 1.0
2017-Dec-01 18:31N 47°32' W 122°20'2 4.6
2017-Dec-01 18:01N 47°34' W 122°21'3 6.6
2017-Dec-01 17:31N 47°36' W 122°26'4 8.6
2017-Dec-01 17:00N 47°34' W 122°32'3 6.7
2017-Dec-01 16:30N 47°33' W 122°37'1 1.2
2017-Dec-01 16:00N 47°33' W 122°38'0 0.0
2017-Dec-01 15:30N 47°33' W 122°38'0 0.7
2017-Dec-01 14:58N 47°33' W 122°37'3 5.8
2017-Dec-01 14:30N 47°35' W 122°34'2 4.3
2017-Dec-01 14:00N 47°34' W 122°31'3 5.5
2017-Dec-01 13:31N 47°35' W 122°27'3 6.1
2017-Dec-01 13:01N 47°36' W 122°23'3 6.8
2017-Dec-01 12:30N 47°33' W 122°20'1 1.9
2017-Dec-01 12:01N 47°32' W 122°20'  
2017-Nov-28 23:15N 47°32' W 122°20'0 0.3
2017-Nov-28 23:01N 47°32' W 122°20'0 0.1
2017-Nov-28 22:31N 47°32' W 122°20'0 0.1
2017-Nov-28 22:01N 47°32' W 122°20'0 0.4
2017-Nov-28 21:31N 47°32' W 122°19'0 0.1
2017-Nov-28 21:01N 47°32' W 122°19'0 0.5
2017-Nov-28 20:31N 47°32' W 122°20'0 0.0
2017-Nov-28 20:00N 47°32' W 122°20'  

Dump ship's entire track history